createdAt,value
2023-11-24T00:03:07.097Z,0.9
2023-11-24T00:08:07.473Z,1.6
2023-11-24T00:10:35.848Z,2.1
2023-11-24T00:15:36.339Z,1.1
2023-11-24T00:20:36.880Z,0.9
2023-11-24T00:25:37.077Z,1.7
2023-11-24T00:30:37.488Z,1.6
2023-11-24T00:35:37.980Z,1.6
2023-11-24T00:40:38.339Z,1.1
2023-11-24T00:45:38.787Z,1.6
2023-11-24T00:50:39.149Z,1.4
2023-11-24T00:55:39.651Z,1.6
2023-11-24T01:00:40.088Z,1.1
2023-11-24T01:05:40.472Z,1.2
2023-11-24T01:10:40.946Z,1.2
2023-11-24T01:15:41.367Z,1.4
2023-11-24T01:20:41.787Z,1.2
2023-11-24T01:25:42.242Z,1.6
2023-11-24T01:30:42.808Z,1.5
2023-11-24T01:35:43.119Z,1.4
2023-11-24T01:40:44.070Z,1.4
2023-11-24T01:45:44.089Z,1.2
2023-11-24T01:50:45.036Z,1.0
2023-11-24T01:55:45.036Z,1.2
2023-11-24T02:00:45.361Z,1.2
2023-11-24T02:05:45.737Z,1.6
2023-11-24T02:10:47.740Z,1.6
2023-11-24T02:15:46.750Z,0.9
2023-11-24T02:20:47.046Z,1.4
2023-11-24T02:25:47.408Z,1.0
2023-11-24T02:30:48.238Z,1.8
2023-11-24T02:35:48.503Z,0.8
2023-11-24T02:40:49.329Z,1.3
2023-11-24T02:45:49.188Z,1.2
2023-11-24T02:50:49.662Z,1.5
2023-11-24T02:55:50.076Z,1.6
2023-11-24T03:00:50.631Z,1.6
2023-11-24T03:05:51.067Z,1.6
2023-11-24T03:10:51.647Z,1.7
2023-11-24T03:15:52.006Z,1.2
2023-11-24T03:20:52.521Z,1.3
2023-11-24T03:25:53.017Z,1.5
2023-11-24T03:30:53.423Z,1.6
2023-11-24T03:35:53.910Z,2.1
2023-11-24T03:40:54.389Z,0.9
2023-11-24T03:45:54.876Z,1.4
2023-11-24T03:50:55.395Z,1.1
2023-11-24T03:55:55.798Z,0.9
2023-11-24T04:05:56.780Z,1.5
2023-11-24T04:16:21.732Z,1.8
2023-11-24T04:20:58.175Z,1.4
2023-11-24T04:26:00.023Z,1.1
2023-11-24T04:30:59.079Z,0.5
2023-11-24T04:35:59.501Z,1.2
2023-11-24T04:40:59.966Z,0.6
2023-11-24T04:46:00.495Z,1.3
2023-11-24T04:51:00.830Z,1.1
2023-11-24T04:56:01.289Z,1.6
2023-11-24T05:01:01.778Z,0.7
2023-11-24T05:06:02.158Z,1.1
2023-11-24T05:11:02.634Z,1.3
2023-11-24T05:16:03.050Z,0.9
2023-11-24T05:21:03.770Z,0.7
2023-11-24T05:26:03.926Z,0.8
2023-11-24T05:31:04.274Z,1.3
2023-11-24T05:36:04.698Z,1.1
2023-11-24T05:41:05.180Z,1.3
2023-11-24T05:46:05.640Z,0.9
2023-11-24T05:51:06.070Z,1.1
2023-11-24T05:56:07.063Z,0.9
2023-11-24T06:01:07.026Z,1.2
2023-11-24T06:06:07.398Z,1.1
2023-11-24T06:11:07.872Z,1.3
2023-11-24T06:16:08.449Z,1.0
2023-11-24T06:21:08.748Z,1.9
2023-11-24T06:26:09.230Z,0.8
2023-11-24T06:31:12.319Z,1.4
2023-11-24T06:36:10.140Z,1.8
2023-11-24T06:41:10.546Z,1.2
2023-11-24T06:46:11.016Z,1.5
2023-11-24T06:51:11.355Z,0.9
2023-11-24T06:56:11.971Z,1.5
2023-11-24T07:01:12.367Z,2.3
2023-11-24T07:06:12.744Z,1.3
2023-11-24T07:11:13.687Z,1.9
2023-11-24T07:16:13.640Z,1.2
2023-11-24T07:21:14.072Z,1.3
2023-11-24T07:26:14.555Z,1.5
2023-11-24T07:31:14.949Z,1.3
2023-11-24T07:36:15.427Z,1.3
2023-11-24T07:41:18.212Z,1.4
2023-11-24T07:46:16.380Z,1.3
2023-11-24T07:51:16.787Z,1.8
2023-11-24T07:56:17.277Z,1.5
2023-11-24T08:01:18.044Z,1.7
2023-11-24T08:06:18.177Z,1.8
2023-11-24T08:11:18.688Z,2.0
2023-11-24T08:16:19.141Z,1.1
2023-11-24T08:21:19.587Z,1.6
2023-11-24T08:26:20.136Z,0.9
2023-11-24T08:31:20.441Z,0.9
2023-11-24T08:36:20.895Z,1.3
2023-11-24T08:41:30.684Z,1.2
2023-11-24T08:46:21.954Z,1.5
2023-11-24T08:51:22.325Z,2.0
2023-11-24T08:56:22.818Z,1.5
2023-11-24T09:01:23.760Z,1.2
2023-11-24T09:06:23.689Z,1.2
2023-11-24T09:11:24.162Z,1.4
2023-11-24T09:16:24.737Z,1.7
2023-11-24T09:21:25.070Z,1.2
2023-11-24T09:26:25.537Z,1.8
2023-11-24T09:31:26.098Z,1.5
2023-11-24T09:36:26.468Z,1.0
2023-11-24T09:41:26.936Z,1.1
2023-11-24T09:46:36.462Z,2.0
2023-11-24T09:51:27.895Z,1.3
2023-11-24T09:56:28.499Z,1.3
2023-11-24T10:01:29.459Z,1.3
2023-11-24T10:06:29.208Z,1.8
2023-11-24T10:11:30.185Z,1.2
2023-11-24T10:16:30.190Z,1.6
2023-11-24T10:21:32.874Z,2.3
2023-11-24T10:26:31.126Z,2.5
2023-11-24T10:31:31.622Z,2.6
2023-11-24T10:36:32.120Z,2.4
2023-11-24T10:41:32.549Z,2.3
2023-11-24T10:46:33.229Z,2.5
2023-11-24T10:51:33.534Z,2.9
2023-11-24T10:56:34.053Z,2.8
2023-11-24T11:01:34.686Z,2.2
2023-11-24T11:02:49.358Z,2.2
2023-11-24T11:06:35.020Z,2.6
2023-11-24T11:11:35.551Z,2.2
2023-11-24T11:16:36.887Z,2.5
2023-11-24T11:21:36.513Z,2.6
2023-11-24T11:26:37.061Z,1.7
2023-11-24T11:31:38.474Z,1.7
2023-11-24T11:36:37.979Z,2.2
2023-11-24T11:41:38.558Z,1.5
2023-11-24T11:46:39.141Z,2.1
2023-11-24T11:51:39.566Z,2.0
2023-11-24T11:56:40.099Z,2.7
2023-11-24T12:01:40.648Z,1.4
2023-11-24T12:06:41.076Z,2.0
2023-11-24T12:11:41.820Z,1.4
2023-11-24T12:16:42.130Z,1.6
2023-11-24T12:21:42.645Z,2.4
2023-11-24T12:26:42.951Z,1.2
2023-11-24T12:31:43.759Z,1.4
2023-11-24T12:36:43.972Z,1.6
2023-11-24T12:41:45.493Z,2.3
2023-11-24T12:46:45.103Z,2.1
2023-11-24T12:51:45.436Z,1.8
2023-11-24T12:56:45.848Z,2.3
2023-11-24T13:01:46.403Z,2.3
2023-11-24T13:06:46.809Z,2.3
2023-11-24T13:11:47.692Z,2.3
2023-11-24T13:16:48.224Z,2.5
2023-11-24T13:21:48.332Z,1.6
2023-11-24T13:26:48.748Z,1.6
2023-11-24T13:31:50.872Z,1.0
2023-11-24T13:36:49.735Z,1.8
2023-11-24T13:42:00.782Z,1.0
2023-11-24T13:46:50.827Z,1.0
2023-11-24T13:51:51.276Z,1.3
2023-11-24T13:56:51.753Z,1.2
2023-11-24T14:01:52.486Z,1.9
2023-11-24T14:06:52.781Z,2.6
2023-11-24T14:11:53.299Z,2.3
2023-11-24T14:16:53.926Z,2.4
2023-11-24T14:21:54.313Z,2.4
2023-11-24T14:26:54.777Z,2.2
2023-11-24T14:31:23.100Z,2.2
2023-11-24T14:31:50.010Z,2.2
2023-11-24T14:31:55.567Z,2.8
2023-11-24T14:33:17.105Z,2.8
2023-11-24T14:36:55.837Z,2.3
2023-11-24T14:41:56.515Z,2.0
2023-11-24T14:46:56.915Z,2.0
2023-11-24T14:51:57.762Z,2.1
2023-11-24T14:56:57.839Z,2.4
2023-11-24T15:01:58.409Z,2.2
2023-11-24T15:06:58.861Z,2.4
2023-11-24T15:11:59.382Z,2.4
2023-11-24T15:17:00.033Z,2.2
2023-11-24T15:22:00.441Z,1.8
2023-11-24T15:27:00.853Z,2.0
2023-11-24T15:32:01.584Z,1.8
2023-11-24T15:37:01.866Z,1.4
2023-11-24T15:42:02.381Z,2.0
2023-11-24T15:47:02.954Z,1.7
2023-11-24T15:52:03.398Z,2.0
2023-11-24T15:57:03.832Z,1.9
2023-11-24T16:02:04.613Z,1.6
2023-11-24T16:07:04.811Z,1.6
2023-11-24T16:12:05.273Z,2.0
2023-11-24T16:17:06.081Z,2.4
2023-11-24T16:22:06.853Z,2.3
2023-11-24T16:27:06.783Z,1.7
2023-11-24T16:32:07.441Z,1.7
2023-11-24T16:37:07.875Z,1.5
2023-11-24T16:42:08.413Z,1.1
2023-11-24T16:47:08.942Z,1.3
2023-11-24T16:52:09.518Z,1.8
2023-11-24T16:57:09.940Z,1.4
2023-11-24T17:02:11.363Z,1.3
2023-11-24T17:07:10.964Z,1.2
2023-11-24T17:12:11.591Z,1.6
2023-11-24T17:17:11.983Z,1.2
2023-11-24T17:22:12.490Z,1.2
2023-11-24T17:27:13.030Z,0.9
2023-11-24T17:32:13.440Z,1.2
2023-11-24T17:37:14.007Z,1.4
2023-11-24T17:42:14.499Z,1.7
2023-11-24T17:47:15.030Z,1.5
2023-11-24T17:52:15.572Z,1.2
2023-11-24T17:57:16.065Z,1.2
2023-11-24T18:02:16.802Z,1.0
2023-11-24T18:07:17.141Z,1.1
2023-11-24T18:12:17.606Z,1.0
2023-11-24T18:17:18.180Z,1.2
2023-11-24T18:22:18.625Z,1.1
2023-11-24T18:27:19.083Z,1.1
2023-11-24T18:32:19.665Z,0.8
2023-11-24T18:37:20.267Z,0.9
2023-11-24T18:42:20.622Z,1.1
2023-11-24T18:47:22.978Z,0.7
2023-11-24T18:52:29.089Z,1.2
2023-11-24T18:57:22.090Z,1.6
2023-11-24T19:02:22.658Z,1.3
2023-11-24T19:07:23.111Z,1.2
2023-11-24T19:12:23.531Z,1.5
2023-11-24T19:17:24.027Z,2.0
2023-11-24T19:22:24.588Z,1.4
2023-11-24T19:27:24.947Z,1.4
2023-11-24T19:32:26.088Z,1.4
2023-11-24T19:37:26.027Z,1.7
2023-11-24T19:42:26.496Z,1.0
2023-11-24T19:47:28.400Z,1.1
2023-11-24T19:52:27.451Z,0.8
2023-11-24T19:57:27.746Z,0.9
2023-11-24T20:02:28.645Z,0.7
2023-11-24T20:07:28.762Z,1.1
2023-11-24T20:12:29.156Z,1.2
2023-11-24T20:17:29.667Z,1.0
2023-11-24T20:22:30.227Z,1.0
2023-11-24T20:27:30.711Z,1.4
2023-11-24T20:32:31.074Z,1.2
2023-11-24T20:37:31.655Z,1.4
2023-11-24T20:42:32.030Z,1.2
2023-11-24T20:47:32.551Z,1.2
2023-11-24T20:52:33.068Z,1.4
2023-11-24T20:57:33.577Z,1.6
2023-11-24T21:02:34.091Z,1.7
2023-11-24T21:07:34.557Z,1.5
2023-11-24T21:12:35.108Z,1.6
2023-11-24T21:17:35.724Z,1.3
2023-11-24T21:22:36.037Z,1.2
2023-11-24T21:27:36.527Z,1.5
2023-11-24T21:32:37.014Z,1.3
2023-11-24T21:37:37.481Z,1.2
2023-11-24T21:42:37.942Z,1.4
2023-11-24T21:47:38.485Z,0.8
2023-11-24T21:52:38.919Z,0.8
2023-11-24T21:57:39.400Z,0.7
2023-11-24T22:02:41.112Z,1.1
2023-11-24T22:07:40.351Z,0.9
2023-11-24T22:12:40.801Z,1.0
2023-11-24T22:17:41.342Z,0.7
2023-11-24T22:22:41.762Z,0.8
2023-11-24T22:27:42.259Z,0.9
2023-11-24T22:32:42.673Z,0.9
2023-11-24T22:37:43.116Z,0.9
2023-11-24T22:42:43.919Z,1.0
2023-11-24T22:47:44.014Z,0.8
2023-11-24T22:52:44.534Z,0.7
2023-11-24T22:57:45.030Z,0.5
2023-11-24T23:02:45.534Z,0.7
2023-11-24T23:07:45.940Z,0.5
2023-11-24T23:12:46.548Z,0.4
2023-11-24T23:17:46.855Z,0.5
2023-11-24T23:22:47.243Z,0.5
2023-11-24T23:27:47.751Z,0.8
2023-11-24T23:32:48.089Z,0.5
2023-11-24T23:37:48.602Z,0.4
2023-11-24T23:42:49.048Z,0.7
2023-11-24T23:47:49.691Z,0.5
2023-11-24T23:52:49.941Z,0.4
2023-11-24T23:57:50.475Z,0.3
